createdAt,value
2019-02-04T00:00:15.027Z,29.3
2019-02-04T00:01:16.351Z,29.4
2019-02-04T00:02:17.714Z,29.1
2019-02-04T00:03:19.087Z,29.3
2019-02-04T00:04:20.461Z,29.3
2019-02-04T00:05:21.853Z,29.3
2019-02-04T00:06:23.191Z,29.3
2019-02-04T00:07:24.555Z,29.3
2019-02-04T00:08:25.966Z,29.2
2019-02-04T00:09:27.340Z,29.3
2019-02-04T00:10:28.710Z,29.3
2019-02-04T00:11:30.171Z,29.4
2019-02-04T00:12:31.573Z,29.1
2019-02-04T00:13:32.929Z,29.3
2019-02-04T00:14:34.336Z,29.2
2019-02-04T00:15:35.717Z,29.3
2019-02-04T00:16:40.933Z,29.0
2019-02-04T00:17:38.426Z,29.4
2019-02-04T00:18:39.812Z,29.2
2019-02-04T00:19:41.175Z,29.1
2019-02-04T00:20:42.540Z,29.2
2019-02-04T00:21:43.904Z,29.3
2019-02-04T00:22:45.258Z,29.1
2019-02-04T00:23:46.636Z,29.0
2019-02-04T00:24:48.002Z,28.9
2019-02-04T00:25:49.390Z,29.1
2019-02-04T00:26:51.909Z,29.0
2019-02-04T00:27:52.662Z,29.1
2019-02-04T00:28:54.186Z,29.1
2019-02-04T00:29:55.563Z,29.0
2019-02-04T00:30:56.943Z,29.0
2019-02-04T00:31:58.339Z,29.1
2019-02-04T00:32:59.733Z,29.1
2019-02-04T00:34:01.108Z,28.5
2019-02-04T00:35:02.472Z,28.6
2019-02-04T00:36:03.909Z,29.1
2019-02-04T00:37:05.213Z,29.1
2019-02-04T00:38:06.615Z,28.5
2019-02-04T00:39:07.953Z,28.7
2019-02-04T00:40:09.291Z,28.7
2019-02-04T00:41:10.658Z,28.7
2019-02-04T00:42:12.033Z,28.4
2019-02-04T00:43:13.410Z,28.6
2019-02-04T00:44:14.781Z,28.8
2019-02-04T00:45:16.146Z,28.6
2019-02-04T00:46:17.549Z,28.5
2019-02-04T00:47:18.917Z,28.5
2019-02-04T00:48:20.290Z,28.7
2019-02-04T00:49:21.625Z,28.6
2019-02-04T00:50:22.993Z,28.5
2019-02-04T00:51:24.363Z,28.6
2019-02-04T00:52:25.729Z,29.0
2019-02-04T00:53:27.207Z,28.6
2019-02-04T00:54:28.452Z,29.0
2019-02-04T00:55:29.779Z,28.7
2019-02-04T00:56:31.184Z,28.6
2019-02-04T00:57:32.584Z,28.6
2019-02-04T00:58:33.875Z,28.6
2019-02-04T00:59:35.225Z,29.0
2019-02-04T01:00:37.252Z,28.9
2019-02-04T01:01:38.629Z,28.6
2019-02-04T01:02:39.999Z,28.6
2019-02-04T01:03:41.370Z,28.9
2019-02-04T01:04:42.742Z,29.0
2019-02-04T01:05:44.103Z,28.9
2019-02-04T01:06:45.485Z,28.7
2019-02-04T01:07:46.856Z,28.9
2019-02-04T01:08:48.350Z,28.9
2019-02-04T01:09:49.540Z,28.8
2019-02-04T01:10:50.902Z,28.8
2019-02-04T01:11:52.294Z,28.7
2019-02-04T01:12:53.692Z,28.7
2019-02-04T01:13:55.074Z,28.9
2019-02-04T01:14:56.447Z,28.8
2019-02-04T01:15:57.852Z,28.9
2019-02-04T01:17:03.413Z,28.8
2019-02-04T01:18:00.575Z,28.8
2019-02-04T01:19:01.970Z,28.9
2019-02-04T01:20:03.408Z,28.8
2019-02-04T01:21:04.778Z,28.7
2019-02-04T01:22:06.146Z,28.7
2019-02-04T01:23:07.532Z,28.8
2019-02-04T01:24:08.882Z,28.7
2019-02-04T01:25:10.247Z,28.8
2019-02-04T01:26:11.612Z,28.8
2019-02-04T01:27:12.999Z,28.8
2019-02-04T01:28:14.406Z,28.7
2019-02-04T01:29:15.792Z,28.8
2019-02-04T01:30:17.158Z,28.8
2019-02-04T01:31:18.524Z,28.7
2019-02-04T01:32:19.965Z,28.8
2019-02-04T01:33:21.353Z,28.8
2019-02-04T01:34:22.724Z,28.8
2019-02-04T01:35:24.096Z,28.7
2019-02-04T01:36:25.462Z,28.8
2019-02-04T01:37:26.803Z,28.7
2019-02-04T01:38:28.172Z,28.7
2019-02-04T01:39:29.535Z,28.7
2019-02-04T01:40:30.905Z,28.7
2019-02-04T01:41:33.348Z,28.8
2019-02-04T01:42:33.608Z,28.7
2019-02-04T01:43:34.978Z,28.7
2019-02-04T01:44:36.345Z,28.7
2019-02-04T01:45:37.716Z,28.7
2019-02-04T01:46:39.053Z,28.8
2019-02-04T01:47:40.419Z,28.8
2019-02-04T01:48:41.784Z,28.7
2019-02-04T01:49:44.765Z,28.8
2019-02-04T01:50:46.925Z,28.7
2019-02-04T01:51:48.296Z,28.7
2019-02-04T01:52:49.655Z,28.8
2019-02-04T01:53:51.044Z,28.5
2019-02-04T01:54:52.427Z,28.9
2019-02-04T01:55:53.827Z,28.5
2019-02-04T01:56:55.181Z,28.6
2019-02-04T01:57:56.537Z,28.7
2019-02-04T01:58:57.912Z,28.7
2019-02-04T01:59:59.312Z,28.5
2019-02-04T02:01:00.676Z,28.6
2019-02-04T02:02:02.099Z,28.7
2019-02-04T02:03:03.457Z,28.7
2019-02-04T02:04:04.835Z,28.7
2019-02-04T02:05:06.209Z,28.6
2019-02-04T02:06:07.555Z,28.6
2019-02-04T02:07:08.922Z,28.8
2019-02-04T02:08:10.296Z,28.5
2019-02-04T02:09:11.678Z,28.9
2019-02-04T02:10:13.073Z,29.0
2019-02-04T02:11:14.437Z,28.5
2019-02-04T02:12:15.799Z,28.4
2019-02-04T02:13:17.170Z,28.4
2019-02-04T02:14:18.534Z,28.9
2019-02-04T02:15:19.897Z,28.9
2019-02-04T02:16:21.235Z,28.8
2019-02-04T02:17:26.500Z,28.9
2019-02-04T02:18:23.967Z,28.3
2019-02-04T02:19:25.432Z,28.6
2019-02-04T02:20:26.839Z,28.3
2019-02-04T02:21:28.195Z,28.6
2019-02-04T02:22:29.579Z,28.4
2019-02-04T02:23:30.955Z,28.3
2019-02-04T02:24:32.304Z,28.3
2019-02-04T02:25:33.674Z,28.5
2019-02-04T02:26:35.042Z,28.8
2019-02-04T02:27:36.425Z,28.8
2019-02-04T02:28:37.803Z,28.9
2019-02-04T02:29:39.289Z,28.8
2019-02-04T02:30:40.509Z,28.5
2019-02-04T02:31:41.875Z,28.9
2019-02-04T02:32:43.239Z,28.5
2019-02-04T02:33:44.608Z,28.6
2019-02-04T02:34:45.983Z,28.3
2019-02-04T02:35:47.368Z,28.6
2019-02-04T02:36:48.844Z,28.3
2019-02-04T02:37:50.058Z,28.3
2019-02-04T02:38:51.439Z,28.3
2019-02-04T02:39:53.733Z,28.4
2019-02-04T02:40:55.108Z,28.7
2019-02-04T02:41:56.505Z,28.6
2019-02-04T02:42:57.878Z,28.3
2019-02-04T02:43:59.246Z,28.3
2019-02-04T02:45:00.578Z,28.6
2019-02-04T02:46:01.952Z,28.7
2019-02-04T02:47:03.322Z,28.8
2019-02-04T02:48:04.685Z,28.6
2019-02-04T02:49:06.113Z,28.7
2019-02-04T02:50:07.511Z,28.7
2019-02-04T02:51:08.872Z,28.6
2019-02-04T02:52:10.242Z,28.7
2019-02-04T02:53:11.614Z,28.6
2019-02-04T02:54:12.942Z,28.8
2019-02-04T02:55:14.307Z,28.6
2019-02-04T02:56:15.676Z,28.7
2019-02-04T02:57:17.058Z,28.7
2019-02-04T02:58:18.408Z,28.9
2019-02-04T02:59:19.781Z,28.7
2019-02-04T03:00:21.160Z,28.7
2019-02-04T03:01:22.525Z,28.9
2019-02-04T03:02:23.889Z,28.8
2019-02-04T03:03:25.258Z,28.6
2019-02-04T03:04:26.622Z,28.6
2019-02-04T03:05:27.980Z,28.6
2019-02-04T03:06:29.384Z,28.8
2019-02-04T03:07:30.745Z,28.8
2019-02-04T03:08:32.117Z,28.8
2019-02-04T03:09:33.501Z,28.6
2019-02-04T03:10:34.862Z,28.7
2019-02-04T03:11:36.238Z,28.7
2019-02-04T03:12:37.601Z,28.6
2019-02-04T03:13:38.968Z,28.8
2019-02-04T03:14:40.305Z,28.7
2019-02-04T03:15:41.679Z,28.7
2019-02-04T03:16:43.081Z,28.7
2019-02-04T03:17:52.236Z,28.6
2019-02-04T03:18:45.805Z,28.8
2019-02-04T03:19:47.174Z,28.7
2019-02-04T03:20:48.534Z,28.7
2019-02-04T03:21:49.900Z,28.8
2019-02-04T03:22:51.287Z,28.7
2019-02-04T03:23:52.663Z,28.7
2019-02-04T03:24:54.035Z,28.7
2019-02-04T03:25:55.400Z,28.6
2019-02-04T03:26:56.775Z,28.4
2019-02-04T03:27:58.166Z,28.9
2019-02-04T03:28:59.587Z,28.7
2019-02-04T03:30:00.944Z,28.5
2019-02-04T03:31:02.295Z,28.5
2019-02-04T03:32:03.658Z,28.5
2019-02-04T03:33:04.985Z,28.5
2019-02-04T03:34:06.351Z,28.5
2019-02-04T03:35:07.722Z,28.5
2019-02-04T03:36:09.251Z,28.5
2019-02-04T03:37:10.601Z,28.5
2019-02-04T03:38:11.977Z,28.5
2019-02-04T03:39:13.372Z,28.5
2019-02-04T03:40:14.752Z,28.5
2019-02-04T03:41:16.107Z,28.4
2019-02-04T03:42:17.446Z,28.4
2019-02-04T03:43:18.827Z,28.4
2019-02-04T03:44:20.196Z,28.4
2019-02-04T03:45:21.591Z,28.4
2019-02-04T03:46:22.966Z,28.5
2019-02-04T03:47:24.355Z,28.5
2019-02-04T03:48:25.716Z,28.7
2019-02-04T03:49:27.884Z,28.5
2019-02-04T03:50:29.224Z,28.4
2019-02-04T03:51:30.589Z,28.5
2019-02-04T03:52:31.923Z,28.5
2019-02-04T03:53:33.312Z,28.6
2019-02-04T03:54:34.669Z,28.6
2019-02-04T03:55:36.037Z,28.5
2019-02-04T03:56:37.419Z,28.4
2019-02-04T03:57:38.777Z,28.4
2019-02-04T03:58:40.145Z,28.6
2019-02-04T03:59:41.510Z,28.4
2019-02-04T04:00:42.883Z,28.4
2019-02-04T04:01:44.226Z,28.6
2019-02-04T04:02:45.595Z,28.6
2019-02-04T04:03:46.963Z,28.5
2019-02-04T04:04:48.349Z,28.6
2019-02-04T04:05:49.714Z,28.5
2019-02-04T04:06:51.085Z,28.6
2019-02-04T04:07:53.534Z,28.6
2019-02-04T04:08:53.821Z,28.4
2019-02-04T04:09:55.157Z,28.6
2019-02-04T04:10:56.532Z,28.6
2019-02-04T04:11:57.859Z,28.6
2019-02-04T04:12:59.225Z,28.6
2019-02-04T04:14:00.587Z,28.6
2019-02-04T04:15:01.971Z,28.4
2019-02-04T04:16:03.336Z,28.5
2019-02-04T04:17:04.703Z,28.5
2019-02-04T04:18:15.604Z,28.6
2019-02-04T04:19:07.481Z,28.4
2019-02-04T04:20:08.752Z,28.4
2019-02-04T04:21:10.142Z,28.6
2019-02-04T04:22:11.509Z,28.6
2019-02-04T04:23:12.930Z,28.5
2019-02-04T04:24:14.307Z,28.6
2019-02-04T04:25:15.671Z,28.6
2019-02-04T04:26:17.042Z,28.6
2019-02-04T04:27:18.420Z,28.6
2019-02-04T04:28:19.815Z,28.4
2019-02-04T04:29:21.160Z,28.3
2019-02-04T04:30:22.498Z,28.6
2019-02-04T04:31:23.928Z,28.4
2019-02-04T04:32:25.228Z,28.7
2019-02-04T04:33:26.660Z,28.4
2019-02-04T04:34:28.023Z,28.5
2019-02-04T04:35:29.390Z,28.6
2019-02-04T04:36:30.780Z,28.4
2019-02-04T04:37:32.154Z,28.3
2019-02-04T04:38:33.528Z,28.5
2019-02-04T04:39:34.890Z,28.6
2019-02-04T04:40:36.258Z,28.6
2019-02-04T04:41:37.672Z,28.7
2019-02-04T04:42:39.027Z,28.5
2019-02-04T04:43:40.395Z,28.5
2019-02-04T04:44:41.788Z,28.3
2019-02-04T04:45:43.156Z,28.2
2019-02-04T04:46:44.630Z,28.3
2019-02-04T04:47:45.882Z,28.6
2019-02-04T04:48:47.245Z,28.6
2019-02-04T04:49:48.572Z,28.6
2019-02-04T04:50:49.940Z,28.6
2019-02-04T04:51:51.311Z,28.4
2019-02-04T04:52:52.681Z,28.4
2019-02-04T04:53:54.056Z,28.6
2019-02-04T04:54:55.428Z,28.6
2019-02-04T04:55:56.797Z,28.5
2019-02-04T04:56:58.177Z,28.5
2019-02-04T04:57:59.548Z,28.6
2019-02-04T04:59:00.886Z,28.6
2019-02-04T05:00:02.268Z,28.6
2019-02-04T05:01:04.581Z,28.2
2019-02-04T05:02:05.995Z,28.6
2019-02-04T05:03:07.344Z,28.6
2019-02-04T05:04:08.797Z,28.4
2019-02-04T05:05:10.163Z,28.0
2019-02-04T05:06:11.534Z,28.0
2019-02-04T05:07:12.900Z,28.0
2019-02-04T05:08:14.288Z,28.3
2019-02-04T05:09:15.607Z,28.3
2019-02-04T05:10:17.073Z,28.3
2019-02-04T05:11:18.451Z,28.1
2019-02-04T05:12:19.807Z,28.3
2019-02-04T05:13:21.178Z,28.1
2019-02-04T05:14:22.540Z,28.1
2019-02-04T05:15:23.968Z,28.1
2019-02-04T05:16:25.373Z,28.0
2019-02-04T05:17:26.761Z,28.1
2019-02-04T05:18:37.804Z,28.1
2019-02-04T05:19:29.426Z,28.1
2019-02-04T05:20:30.793Z,28.3
2019-02-04T05:21:32.166Z,28.3
2019-02-04T05:22:33.537Z,28.2
2019-02-04T05:23:34.902Z,28.2
2019-02-04T05:24:36.263Z,28.3
2019-02-04T05:25:37.631Z,28.2
2019-02-04T05:26:39.018Z,28.2
2019-02-04T05:27:40.383Z,28.4
2019-02-04T05:28:41.758Z,28.0
2019-02-04T05:29:43.132Z,28.4
2019-02-04T05:30:44.501Z,28.3
2019-02-04T05:31:45.895Z,28.2
2019-02-04T05:32:47.263Z,28.2
2019-02-04T05:33:49.316Z,28.2
2019-02-04T05:34:50.682Z,28.1
2019-02-04T05:35:52.043Z,28.1
2019-02-04T05:36:53.421Z,28.2
2019-02-04T05:37:54.777Z,28.1
2019-02-04T05:38:56.150Z,28.2
2019-02-04T05:39:57.592Z,28.2
2019-02-04T05:40:58.994Z,28.2
2019-02-04T05:42:00.385Z,28.2
2019-02-04T05:43:01.748Z,28.1
2019-02-04T05:44:03.152Z,28.1
2019-02-04T05:45:04.523Z,28.1
2019-02-04T05:46:05.966Z,28.1
2019-02-04T05:47:07.300Z,27.9
2019-02-04T05:48:08.655Z,28.1
2019-02-04T05:49:10.029Z,28.2
2019-02-04T05:50:11.389Z,28.3
2019-02-04T05:51:12.749Z,28.1
2019-02-04T05:52:14.119Z,27.9
2019-02-04T05:53:15.497Z,28.0
2019-02-04T05:54:16.872Z,28.0
2019-02-04T05:55:18.245Z,28.2
2019-02-04T05:56:19.612Z,28.3
2019-02-04T05:57:21.062Z,28.4
2019-02-04T05:58:22.281Z,28.3
2019-02-04T05:59:23.663Z,28.0
2019-02-04T06:00:25.152Z,28.3
2019-02-04T06:01:26.368Z,28.2
2019-02-04T06:02:27.740Z,28.2
2019-02-04T06:03:29.108Z,28.2
2019-02-04T06:04:30.536Z,28.2
2019-02-04T06:05:31.902Z,28.2
2019-02-04T06:06:33.245Z,28.2
2019-02-04T06:07:34.615Z,28.1
2019-02-04T06:08:35.990Z,28.2
2019-02-04T06:09:37.355Z,28.1
2019-02-04T06:10:38.728Z,28.3
2019-02-04T06:11:40.099Z,28.2
2019-02-04T06:12:41.454Z,28.1
2019-02-04T06:13:42.823Z,28.3
2019-02-04T06:14:44.192Z,28.2
2019-02-04T06:15:45.533Z,28.2
2019-02-04T06:16:46.902Z,28.1
2019-02-04T06:17:48.289Z,28.2
2019-02-04T06:19:00.062Z,28.3
2019-02-04T06:19:50.991Z,28.3
2019-02-04T06:20:52.346Z,28.2
2019-02-04T06:21:53.774Z,28.3
2019-02-04T06:22:55.147Z,28.2
2019-02-04T06:23:56.518Z,28.2
2019-02-04T06:24:57.892Z,28.2
2019-02-04T06:25:59.232Z,28.2
2019-02-04T06:27:00.615Z,28.2
2019-02-04T06:28:02.013Z,28.1
2019-02-04T06:29:03.345Z,28.3
2019-02-04T06:30:04.716Z,28.1
2019-02-04T06:31:06.110Z,28.1
2019-02-04T06:32:07.471Z,28.2
2019-02-04T06:33:08.841Z,27.9
2019-02-04T06:34:10.198Z,28.2
2019-02-04T06:35:11.527Z,28.3
2019-02-04T06:36:12.894Z,28.3
2019-02-04T06:37:14.262Z,28.2
2019-02-04T06:38:15.656Z,28.2
2019-02-04T06:39:16.997Z,28.3
2019-02-04T06:40:18.372Z,28.3
2019-02-04T06:41:19.750Z,28.3
2019-02-04T06:42:21.112Z,28.3
2019-02-04T06:43:22.484Z,28.3
2019-02-04T06:44:23.819Z,28.0
2019-02-04T06:45:25.210Z,28.2
2019-02-04T06:46:26.582Z,28.3
2019-02-04T06:47:27.980Z,28.1
2019-02-04T06:48:29.402Z,28.0
2019-02-04T06:49:30.786Z,28.2
2019-02-04T06:50:32.160Z,28.0
2019-02-04T06:51:33.528Z,28.3
2019-02-04T06:52:34.895Z,28.4
2019-02-04T06:53:36.293Z,28.0
2019-02-04T06:54:37.626Z,28.1
2019-02-04T06:55:38.996Z,28.1
2019-02-04T06:56:40.374Z,28.0
2019-02-04T06:57:41.755Z,28.2
2019-02-04T06:58:43.131Z,28.2
2019-02-04T06:59:44.492Z,28.2
2019-02-04T07:00:45.906Z,28.2
2019-02-04T07:01:47.279Z,28.0
2019-02-04T07:02:48.643Z,28.2
2019-02-04T07:03:49.973Z,28.2
2019-02-04T07:04:52.065Z,28.2
2019-02-04T07:05:53.541Z,28.2
2019-02-04T07:06:54.902Z,28.3
2019-02-04T07:07:56.267Z,28.3
2019-02-04T07:08:57.648Z,28.3
2019-02-04T07:09:59.028Z,28.0
2019-02-04T07:11:00.393Z,27.9
2019-02-04T07:12:01.778Z,28.3
2019-02-04T07:13:03.100Z,27.8
2019-02-04T07:14:04.460Z,27.8
2019-02-04T07:15:05.838Z,27.8
2019-02-04T07:16:07.219Z,27.8
2019-02-04T07:17:08.600Z,27.9
2019-02-04T07:18:09.964Z,28.0
2019-02-04T07:19:11.339Z,27.8
2019-02-04T07:20:12.710Z,27.7
2019-02-04T07:21:14.095Z,27.8
2019-02-04T07:22:15.425Z,27.7
2019-02-04T07:23:16.824Z,27.7
2019-02-04T07:24:18.196Z,27.7
2019-02-04T07:25:19.580Z,27.6
2019-02-04T07:26:20.955Z,27.7
2019-02-04T07:27:22.487Z,27.5
2019-02-04T07:28:23.682Z,27.4
2019-02-04T07:29:25.068Z,27.4
2019-02-04T07:30:26.471Z,27.4
2019-02-04T07:31:27.831Z,27.2
2019-02-04T07:32:29.203Z,27.2
2019-02-04T07:33:30.573Z,27.3
2019-02-04T07:34:31.942Z,27.3
2019-02-04T07:35:33.329Z,27.3
2019-02-04T07:36:34.768Z,27.3
2019-02-04T07:37:36.970Z,27.3
2019-02-04T07:38:37.546Z,27.3
2019-02-04T07:39:38.922Z,27.0
2019-02-04T07:40:40.263Z,27.1
2019-02-04T07:41:41.634Z,27.2
2019-02-04T07:42:43.038Z,26.8
2019-02-04T07:43:44.406Z,26.9
2019-02-04T07:44:45.897Z,26.8
2019-02-04T07:45:47.274Z,26.7
2019-02-04T07:46:48.710Z,26.7
2019-02-04T07:47:50.100Z,26.4
2019-02-04T07:48:51.482Z,26.4
2019-02-04T07:49:52.900Z,26.4
2019-02-04T07:50:54.829Z,26.3
2019-02-04T07:51:56.247Z,26.4
2019-02-04T07:52:57.601Z,26.5
2019-02-04T07:53:59.081Z,26.5
2019-02-04T07:55:00.334Z,26.3
2019-02-04T07:56:01.694Z,26.1
2019-02-04T07:57:03.066Z,26.2
2019-02-04T07:58:04.477Z,25.9
2019-02-04T07:59:05.845Z,25.8
2019-02-04T08:00:07.236Z,25.9
2019-02-04T08:01:08.611Z,25.8
2019-02-04T08:02:09.990Z,25.8
2019-02-04T08:03:11.375Z,25.6
2019-02-04T08:04:12.737Z,25.8
2019-02-04T08:05:14.142Z,25.8
2019-02-04T08:06:15.506Z,25.7
2019-02-04T08:07:16.935Z,25.6
2019-02-04T08:08:18.260Z,25.6
2019-02-04T08:09:19.597Z,25.3
2019-02-04T08:10:21.171Z,25.2
2019-02-04T08:11:22.531Z,25.3
2019-02-04T08:12:23.933Z,25.4
2019-02-04T08:13:25.298Z,25.0
2019-02-04T08:14:26.692Z,25.4
2019-02-04T08:15:28.066Z,25.9
2019-02-04T08:16:29.620Z,25.6
2019-02-04T08:17:31.010Z,25.6
2019-02-04T08:18:32.613Z,25.3
2019-02-04T08:19:33.943Z,25.8
2019-02-04T08:20:35.347Z,25.8
2019-02-04T08:21:37.349Z,25.9
2019-02-04T08:22:38.673Z,25.8
2019-02-04T08:23:40.064Z,25.6
2019-02-04T08:24:41.847Z,25.8
2019-02-04T08:25:43.210Z,25.8
2019-02-04T08:26:44.591Z,25.6
2019-02-04T08:27:45.965Z,25.7
2019-02-04T08:28:47.302Z,25.4
2019-02-04T08:29:49.249Z,25.3
2019-02-04T08:30:51.564Z,25.3
2019-02-04T08:31:53.137Z,25.1
2019-02-04T08:32:54.817Z,25.4
2019-02-04T08:33:56.324Z,25.0
2019-02-04T08:34:57.991Z,25.2
2019-02-04T08:35:59.561Z,25.2
2019-02-04T08:37:00.960Z,25.2
2019-02-04T08:38:02.363Z,25.2
2019-02-04T08:39:03.736Z,25.0
2019-02-04T08:40:05.119Z,24.8
2019-02-04T08:41:06.498Z,24.8
2019-02-04T08:42:07.875Z,24.5
2019-02-04T08:43:09.252Z,24.5
2019-02-04T08:44:10.624Z,24.7
2019-02-04T08:45:12.023Z,24.7
2019-02-04T08:46:13.430Z,24.3
2019-02-04T08:47:22.695Z,24.4
2019-02-04T08:48:16.160Z,24.4
2019-02-04T08:49:17.659Z,24.4
2019-02-04T08:50:19.027Z,24.1
2019-02-04T08:51:20.401Z,24.0
2019-02-04T08:52:21.771Z,23.8
2019-02-04T08:53:23.145Z,23.8
2019-02-04T08:54:24.518Z,23.8
2019-02-04T08:55:25.895Z,23.8
2019-02-04T08:56:27.223Z,23.8
2019-02-04T08:57:28.605Z,24.1
2019-02-04T08:58:29.979Z,23.9
2019-02-04T08:59:31.521Z,24.0
2019-02-04T09:00:32.799Z,24.3
2019-02-04T09:01:34.180Z,24.3
2019-02-04T09:02:35.630Z,24.2
2019-02-04T09:03:36.979Z,24.0
2019-02-04T09:04:39.267Z,24.1
2019-02-04T09:05:40.641Z,23.7
2019-02-04T09:06:42.039Z,23.7
2019-02-04T09:07:43.418Z,23.8
2019-02-04T09:08:44.786Z,24.0
2019-02-04T09:09:46.159Z,24.1
2019-02-04T09:10:47.532Z,24.0
2019-02-04T09:11:48.904Z,24.2
2019-02-04T09:12:50.300Z,24.3
2019-02-04T09:13:51.670Z,24.2
2019-02-04T09:14:53.024Z,24.3
2019-02-04T09:15:54.397Z,24.3
2019-02-04T09:16:55.795Z,24.3
2019-02-04T09:17:57.188Z,24.3
2019-02-04T09:18:58.564Z,24.4
2019-02-04T09:20:09.777Z,24.3
2019-02-04T09:21:01.331Z,24.4
2019-02-04T09:22:02.695Z,24.4
2019-02-04T09:23:06.065Z,24.3
2019-02-04T09:24:05.416Z,24.4
2019-02-04T09:25:06.810Z,24.4
2019-02-04T09:26:08.177Z,24.3
2019-02-04T09:27:09.556Z,24.4
2019-02-04T09:28:10.943Z,24.4
2019-02-04T09:29:12.318Z,24.4
2019-02-04T09:30:13.695Z,24.4
2019-02-04T09:31:15.070Z,24.4
2019-02-04T09:32:16.439Z,24.4
2019-02-04T09:33:17.842Z,24.4
2019-02-04T09:34:19.191Z,24.5
2019-02-04T09:35:20.574Z,24.3
2019-02-04T09:36:21.952Z,24.4
2019-02-04T09:37:23.458Z,24.4
2019-02-04T09:38:24.716Z,24.4
2019-02-04T09:39:26.172Z,24.4
2019-02-04T09:40:27.737Z,24.3
2019-02-04T09:41:29.146Z,24.3
2019-02-04T09:42:30.484Z,24.3
2019-02-04T09:43:31.858Z,24.3
2019-02-04T09:44:33.236Z,24.3
2019-02-04T09:45:34.638Z,24.4
2019-02-04T09:46:36.159Z,24.3
2019-02-04T09:47:37.581Z,24.2
2019-02-04T09:48:38.947Z,24.3
2019-02-04T09:49:40.321Z,24.3
2019-02-04T09:50:41.724Z,24.3
2019-02-04T09:51:43.057Z,24.3
2019-02-04T09:52:44.441Z,24.2
2019-02-04T09:53:45.816Z,24.4
2019-02-04T09:54:47.180Z,24.0
2019-02-04T09:55:48.572Z,24.3
2019-02-04T09:56:49.951Z,24.3
2019-02-04T09:57:51.349Z,24.3
2019-02-04T09:58:52.713Z,24.2
2019-02-04T09:59:54.319Z,24.6
2019-02-04T10:00:55.550Z,24.6
2019-02-04T10:01:56.920Z,24.6
2019-02-04T10:02:58.302Z,24.6
2019-02-04T10:03:59.692Z,24.6
2019-02-04T10:05:01.070Z,24.4
2019-02-04T10:06:02.457Z,24.6
2019-02-04T10:07:03.859Z,24.6
2019-02-04T10:08:05.229Z,24.6
2019-02-04T10:09:06.599Z,24.4
2019-02-04T10:10:07.975Z,24.6
2019-02-04T10:11:09.330Z,24.6
2019-02-04T10:12:10.705Z,24.6
2019-02-04T10:13:12.082Z,24.5
2019-02-04T10:14:13.476Z,24.6
2019-02-04T10:15:14.871Z,24.6
2019-02-04T10:16:16.388Z,24.5
2019-02-04T10:17:17.649Z,24.5
2019-02-04T10:18:19.030Z,24.5
2019-02-04T10:19:20.371Z,24.6
2019-02-04T10:20:32.986Z,24.4
2019-02-04T10:21:23.054Z,24.6
2019-02-04T10:22:24.425Z,24.5
2019-02-04T10:23:25.797Z,24.5
2019-02-04T10:24:27.188Z,24.4
2019-02-04T10:25:28.669Z,24.5
2019-02-04T10:26:30.085Z,24.5
2019-02-04T10:27:31.468Z,24.5
2019-02-04T10:28:32.842Z,24.5
2019-02-04T10:29:34.264Z,24.5
2019-02-04T10:30:35.639Z,24.5
2019-02-04T10:31:37.039Z,24.5
2019-02-04T10:32:38.464Z,24.6
2019-02-04T10:33:39.773Z,24.5
2019-02-04T10:34:41.203Z,24.8
2019-02-04T10:35:42.721Z,24.6
2019-02-04T10:36:44.158Z,25.1
2019-02-04T10:37:45.431Z,24.8
2019-02-04T10:38:46.820Z,24.9
2019-02-04T10:39:48.103Z,25.1
2019-02-04T10:40:49.535Z,24.9
2019-02-04T10:41:50.911Z,25.1
2019-02-04T10:42:52.260Z,24.8
2019-02-04T10:43:53.646Z,25.1
2019-02-04T10:44:55.000Z,24.9
2019-02-04T10:45:56.459Z,25.0
2019-02-04T10:46:57.868Z,24.9
2019-02-04T10:47:59.206Z,24.8
2019-02-04T10:49:00.589Z,25.0
2019-02-04T10:50:01.940Z,24.9
2019-02-04T10:51:03.292Z,24.8
2019-02-04T10:52:04.677Z,24.9
2019-02-04T10:53:06.059Z,24.9
2019-02-04T10:54:07.456Z,24.8
2019-02-04T10:55:08.834Z,24.8
2019-02-04T10:56:10.168Z,25.0
2019-02-04T10:57:11.573Z,24.9
2019-02-04T10:58:13.002Z,24.9
2019-02-04T10:59:14.402Z,24.9
2019-02-04T11:00:15.810Z,24.9
2019-02-04T11:01:17.306Z,24.8
2019-02-04T11:02:18.703Z,24.8
2019-02-04T11:03:20.265Z,24.5
2019-02-04T11:04:21.435Z,24.6
2019-02-04T11:05:22.774Z,24.7
2019-02-04T11:06:24.155Z,24.7
2019-02-04T11:07:25.559Z,24.2
2019-02-04T11:08:26.947Z,24.8
2019-02-04T11:09:28.294Z,24.8
2019-02-04T11:10:29.670Z,24.2
2019-02-04T11:11:31.318Z,24.7
2019-02-04T11:12:32.673Z,24.4
2019-02-04T11:13:34.058Z,24.4
2019-02-04T11:14:35.488Z,24.4
2019-02-04T11:15:36.835Z,24.4
2019-02-04T11:16:38.230Z,24.3
2019-02-04T11:17:39.635Z,24.1
2019-02-04T11:18:41.003Z,23.2
2019-02-04T11:19:42.405Z,21.2
2019-02-04T11:20:43.734Z,19.5
2019-02-04T11:21:45.234Z,18.3
2019-02-04T11:22:46.593Z,17.4
2019-02-04T11:23:47.992Z,16.9
2019-02-04T11:24:49.372Z,16.7
2019-02-04T11:25:50.801Z,16.5
2019-02-04T11:26:52.099Z,16.4
2019-02-04T11:27:53.472Z,16.1
2019-02-04T11:28:55.063Z,16.2
2019-02-04T11:29:56.409Z,15.6
2019-02-04T11:30:57.831Z,15.6
2019-02-04T11:31:59.205Z,15.8
2019-02-04T11:33:00.582Z,15.4
2019-02-04T11:34:01.948Z,15.8
2019-02-04T11:35:03.327Z,16.1
2019-02-04T11:36:04.678Z,16.0
2019-02-04T11:37:06.265Z,16.8
2019-02-04T11:38:07.708Z,17.5
2019-02-04T11:39:09.070Z,19.1
2019-02-04T11:40:11.070Z,19.6
2019-02-04T11:41:12.301Z,19.9
2019-02-04T11:42:13.720Z,20.0
2019-02-04T11:43:15.108Z,20.0
2019-02-04T11:44:16.467Z,20.1
2019-02-04T11:45:17.833Z,20.1
2019-02-04T11:46:19.186Z,19.1
2019-02-04T11:47:20.578Z,19.0
2019-02-04T11:48:21.951Z,19.4
2019-02-04T11:49:23.289Z,19.0
2019-02-04T11:50:24.661Z,19.4
2019-02-04T11:51:26.057Z,19.1
2019-02-04T11:52:27.470Z,18.9
2019-02-04T11:53:32.930Z,19.1
2019-02-04T11:54:30.229Z,19.0
2019-02-04T11:55:31.630Z,19.6
2019-02-04T11:56:32.962Z,19.3
2019-02-04T11:57:34.970Z,19.5
2019-02-04T11:58:36.346Z,19.5
2019-02-04T11:59:37.719Z,19.3
2019-02-04T12:00:39.103Z,19.1
2019-02-04T12:01:40.479Z,19.4
2019-02-04T12:02:41.852Z,19.1
2019-02-04T12:03:43.263Z,19.3
2019-02-04T12:04:44.636Z,19.1
2019-02-04T12:05:45.986Z,19.1
2019-02-04T12:06:47.358Z,19.0
2019-02-04T12:07:48.737Z,19.0
2019-02-04T12:08:50.164Z,19.0
2019-02-04T12:09:51.538Z,19.0
2019-02-04T12:10:52.932Z,19.0
2019-02-04T12:11:55.778Z,19.2
2019-02-04T12:12:55.637Z,19.2
2019-02-04T12:13:57.025Z,19.2
2019-02-04T12:14:58.383Z,19.2
2019-02-04T12:15:59.751Z,19.1
2019-02-04T12:17:01.140Z,19.4
2019-02-04T12:18:02.515Z,19.2
2019-02-04T12:19:03.911Z,19.2
2019-02-04T12:20:05.262Z,19.1
2019-02-04T12:21:06.644Z,19.2
2019-02-04T12:22:08.039Z,19.1
2019-02-04T12:23:09.424Z,19.2
2019-02-04T12:24:10.759Z,19.2
2019-02-04T12:25:12.166Z,19.3
2019-02-04T12:26:13.537Z,19.2
2019-02-04T12:27:14.972Z,19.1
2019-02-04T12:28:16.338Z,19.3
2019-02-04T12:29:17.736Z,19.2
2019-02-04T12:30:19.100Z,19.2
2019-02-04T12:31:20.497Z,19.2
2019-02-04T12:32:21.881Z,19.3
2019-02-04T12:33:23.213Z,19.2
2019-02-04T12:34:24.597Z,19.1
2019-02-04T12:35:25.987Z,19.2
2019-02-04T12:36:27.382Z,19.2
2019-02-04T12:37:28.769Z,19.6
2019-02-04T12:38:30.139Z,19.6
2019-02-04T12:39:31.531Z,19.9
2019-02-04T12:40:33.115Z,19.8
2019-02-04T12:41:34.464Z,20.0
2019-02-04T12:42:35.822Z,19.8
2019-02-04T12:43:37.196Z,19.8
2019-02-04T12:44:38.600Z,19.3
2019-02-04T12:45:40.029Z,19.3
2019-02-04T12:46:41.373Z,19.2
2019-02-04T12:47:43.020Z,19.4
2019-02-04T12:48:44.164Z,19.6
2019-02-04T12:49:45.649Z,19.4
2019-02-04T12:50:47.052Z,19.5
2019-02-04T12:51:48.446Z,19.3
2019-02-04T12:52:49.828Z,20.1
2019-02-04T12:53:51.213Z,19.7
2019-02-04T12:54:52.587Z,20.6
2019-02-04T12:55:53.982Z,20.7
2019-02-04T12:56:55.356Z,20.9
2019-02-04T12:57:56.737Z,21.3
2019-02-04T12:58:58.111Z,21.6
2019-02-04T12:59:59.486Z,21.5
2019-02-04T13:01:00.894Z,21.4
2019-02-04T13:02:02.202Z,21.9
2019-02-04T13:03:03.593Z,22.0
2019-02-04T13:04:04.986Z,22.1
2019-02-04T13:05:06.369Z,22.2
2019-02-04T13:06:07.731Z,22.4
2019-02-04T13:07:09.099Z,18.7
2019-02-04T13:08:10.482Z,20.5
2019-02-04T13:09:11.860Z,22.3
2019-02-04T13:10:13.229Z,22.0
2019-02-04T13:11:14.579Z,20.5
2019-02-04T13:12:15.967Z,20.7
2019-02-04T13:13:17.372Z,20.9
2019-02-04T13:14:18.743Z,20.6
2019-02-04T13:15:20.131Z,20.6
2019-02-04T13:16:21.514Z,20.8
2019-02-04T13:17:22.908Z,21.1
2019-02-04T13:18:24.305Z,21.2
2019-02-04T13:19:25.685Z,21.2
2019-02-04T13:20:27.050Z,21.4
2019-02-04T13:21:28.426Z,21.5
2019-02-04T13:22:29.798Z,21.4
2019-02-04T13:23:31.185Z,21.6
2019-02-04T13:24:32.572Z,22.0
2019-02-04T13:25:33.975Z,22.1
2019-02-04T13:26:35.370Z,22.2
2019-02-04T13:27:36.767Z,22.5
2019-02-04T13:28:38.152Z,22.9
2019-02-04T13:29:39.526Z,23.2
2019-02-04T13:30:40.865Z,23.3
2019-02-04T13:31:42.290Z,24.0
2019-02-04T13:32:43.659Z,23.9
2019-02-04T13:33:45.063Z,24.4
2019-02-04T13:34:46.447Z,24.3
2019-02-04T13:35:47.826Z,24.5
2019-02-04T13:36:49.191Z,25.3